createdAt,value
2022-10-30T00:00:48.715Z,100.00
2022-10-30T00:03:16.690Z,100.00
2022-10-30T00:05:45.110Z,100.00
2022-10-30T00:08:14.282Z,100.00
2022-10-30T00:10:41.924Z,100.00
2022-10-30T00:13:09.180Z,100.00
2022-10-30T00:15:36.204Z,99.62
2022-10-30T00:18:03.079Z,99.47
2022-10-30T00:20:29.737Z,99.27
2022-10-30T00:22:56.658Z,98.61
2022-10-30T00:25:23.539Z,99.30
2022-10-30T00:27:50.125Z,99.97
2022-10-30T00:30:18.819Z,99.52
2022-10-30T00:32:45.496Z,99.47
2022-10-30T00:35:12.147Z,99.45
2022-10-30T00:37:38.892Z,98.88
2022-10-30T00:40:06.781Z,98.96
2022-10-30T00:42:33.444Z,99.60
2022-10-30T00:45:00.045Z,99.90
2022-10-30T00:47:34.536Z,100.00
2022-10-30T00:50:09.466Z,100.00
2022-10-30T00:52:39.470Z,99.89
2022-10-30T00:55:11.953Z,100.00
2022-10-30T00:57:39.923Z,100.00
2022-10-30T01:00:08.528Z,100.00
2022-10-30T01:02:35.295Z,100.00
2022-10-30T01:05:04.081Z,100.00
2022-10-30T01:07:30.711Z,100.00
2022-10-30T01:09:57.529Z,100.00
2022-10-30T01:12:24.147Z,100.00
2022-10-30T01:14:56.294Z,100.00
2022-10-30T01:17:44.257Z,100.00
2022-10-30T01:20:37.681Z,100.00
2022-10-30T01:23:10.165Z,100.00
2022-10-30T01:25:51.552Z,100.00
2022-10-30T01:28:46.172Z,100.00
2022-10-30T01:31:24.910Z,99.96
2022-10-30T01:34:20.520Z,99.71
2022-10-30T01:37:13.243Z,99.13
2022-10-30T01:39:41.149Z,100.00
2022-10-30T01:42:38.640Z,100.00
2022-10-30T01:45:05.888Z,100.00
2022-10-30T01:48:00.074Z,100.00
2022-10-30T01:50:36.078Z,100.00
2022-10-30T01:53:27.310Z,100.00
2022-10-30T01:56:09.046Z,100.00
2022-10-30T01:58:46.208Z,100.00
2022-10-30T02:01:13.676Z,100.00
2022-10-30T02:03:40.758Z,100.00
2022-10-30T02:06:07.452Z,100.00
2022-10-30T02:08:34.122Z,100.00
2022-10-30T02:11:00.816Z,100.00
2022-10-30T02:13:27.815Z,100.00
2022-10-30T02:15:55.041Z,100.00
2022-10-30T02:18:21.602Z,100.00
2022-10-30T02:20:48.503Z,100.00
2022-10-30T02:23:19.515Z,100.00
2022-10-30T02:25:46.125Z,100.00
2022-10-30T02:28:12.779Z,100.00
2022-10-30T02:30:43.962Z,100.00
2022-10-30T02:33:10.988Z,100.00
2022-10-30T02:35:37.665Z,100.00
2022-10-30T02:38:04.252Z,100.00
2022-10-30T02:40:30.968Z,100.00
2022-10-30T02:42:57.549Z,100.00
2022-10-30T02:45:24.212Z,100.00
2022-10-30T02:47:50.975Z,100.00
2022-10-30T02:50:17.852Z,100.00
2022-10-30T02:52:44.587Z,100.00
2022-10-30T02:55:11.200Z,100.00
2022-10-30T02:57:37.793Z,100.00
2022-10-30T03:00:05.083Z,100.00
2022-10-30T03:02:31.715Z,100.00
2022-10-30T03:04:58.306Z,100.00
2022-10-30T03:07:24.932Z,100.00
2022-10-30T03:09:52.219Z,100.00
2022-10-30T03:12:18.839Z,100.00
2022-10-30T03:14:45.674Z,100.00
2022-10-30T03:17:12.427Z,100.00
2022-10-30T03:19:40.870Z,100.00
2022-10-30T03:22:07.627Z,100.00
2022-10-30T03:24:34.269Z,100.00
2022-10-30T03:27:00.842Z,100.00
2022-10-30T03:29:28.578Z,100.00
2022-10-30T03:31:55.147Z,100.00
2022-10-30T03:34:21.825Z,100.00
2022-10-30T03:36:48.435Z,100.00
2022-10-30T03:39:15.099Z,100.00
2022-10-30T03:41:43.457Z,100.00
2022-10-30T03:44:10.051Z,100.00
2022-10-30T03:46:36.977Z,100.00
2022-10-30T03:49:03.564Z,100.00
2022-10-30T03:51:30.155Z,100.00
2022-10-30T03:53:56.848Z,100.00
2022-10-30T03:56:23.471Z,100.00
2022-10-30T03:58:50.116Z,100.00
2022-10-30T04:01:16.982Z,100.00
2022-10-30T04:03:43.724Z,100.00
2022-10-30T04:06:10.420Z,100.00
2022-10-30T04:08:37.057Z,100.00
2022-10-30T04:11:04.274Z,100.00
2022-10-30T04:13:30.941Z,100.00
2022-10-30T04:15:58.399Z,100.00
2022-10-30T04:18:25.757Z,100.00
2022-10-30T04:20:52.392Z,100.00
2022-10-30T04:23:20.492Z,100.00
2022-10-30T04:25:47.443Z,100.00
2022-10-30T04:28:14.554Z,100.00
2022-10-30T04:30:41.273Z,100.00
2022-10-30T04:33:11.689Z,100.00
2022-10-30T04:35:38.727Z,100.00
2022-10-30T04:38:13.614Z,100.00
2022-10-30T04:40:43.004Z,100.00
2022-10-30T04:43:10.873Z,100.00
2022-10-30T04:45:38.647Z,100.00
2022-10-30T04:48:17.011Z,100.00
2022-10-30T04:50:44.028Z,100.00
2022-10-30T04:53:18.679Z,100.00
2022-10-30T04:55:46.000Z,100.00
2022-10-30T04:58:13.248Z,100.00
2022-10-30T05:00:40.498Z,100.00
2022-10-30T05:03:07.180Z,100.00
2022-10-30T05:05:33.800Z,100.00
2022-10-30T05:08:00.857Z,100.00
2022-10-30T05:10:27.816Z,100.00
2022-10-30T05:12:54.551Z,100.00
2022-10-30T05:15:21.498Z,100.00
2022-10-30T05:17:52.810Z,100.00
2022-10-30T05:20:20.070Z,100.00
2022-10-30T05:22:46.980Z,100.00
2022-10-30T05:25:13.689Z,100.00
2022-10-30T05:27:40.284Z,100.00
2022-10-30T05:30:07.500Z,100.00
2022-10-30T05:32:34.081Z,100.00
2022-10-30T05:35:00.686Z,100.00
2022-10-30T05:37:27.390Z,100.00
2022-10-30T05:39:53.973Z,100.00
2022-10-30T05:42:20.593Z,100.00
2022-10-30T05:45:00.352Z,100.00
2022-10-30T05:47:27.837Z,100.00
2022-10-30T05:49:54.449Z,100.00
2022-10-30T05:52:21.319Z,100.00
2022-10-30T05:54:47.886Z,100.00
2022-10-30T05:57:14.501Z,100.00
2022-10-30T05:59:41.246Z,100.00
2022-10-30T06:02:07.960Z,100.00
2022-10-30T06:04:34.652Z,100.00
2022-10-30T06:07:01.260Z,100.00
2022-10-30T06:09:27.891Z,100.00
2022-10-30T06:11:54.821Z,100.00
2022-10-30T06:14:21.517Z,100.00
2022-10-30T06:16:48.316Z,100.00
2022-10-30T06:19:18.399Z,100.00
2022-10-30T06:21:46.110Z,100.00
2022-10-30T06:24:13.025Z,100.00
2022-10-30T06:26:40.254Z,99.30
2022-10-30T06:29:06.865Z,99.98
2022-10-30T06:31:33.455Z,100.00
2022-10-30T06:34:00.795Z,100.00
2022-10-30T06:36:27.495Z,99.36
2022-10-30T06:38:54.272Z,100.00
2022-10-30T06:41:23.428Z,98.05
2022-10-30T06:43:55.842Z,98.15
2022-10-30T06:46:24.537Z,96.92
2022-10-30T06:48:54.095Z,96.37
2022-10-30T06:51:21.163Z,95.99
2022-10-30T06:53:48.116Z,94.79
2022-10-30T06:56:14.724Z,93.89
2022-10-30T06:58:42.131Z,93.75
2022-10-30T07:01:08.974Z,93.17
2022-10-30T07:03:35.749Z,91.59
2022-10-30T07:06:02.519Z,87.96
2022-10-30T07:08:29.376Z,85.28
2022-10-30T07:10:57.410Z,80.32
2022-10-30T07:13:24.502Z,73.97
2022-10-30T07:15:51.338Z,72.25
2022-10-30T07:18:17.923Z,72.51
2022-10-30T07:20:44.533Z,72.90
2022-10-30T07:23:11.102Z,71.27
2022-10-30T07:25:37.721Z,68.62
2022-10-30T07:28:04.698Z,70.46
2022-10-30T07:30:31.314Z,70.20
2022-10-30T07:33:03.606Z,73.11
2022-10-30T07:35:31.067Z,74.56
2022-10-30T07:38:05.678Z,73.58
2022-10-30T07:40:33.130Z,71.98
2022-10-30T07:43:01.427Z,68.30
2022-10-30T07:45:29.447Z,63.14
2022-10-30T07:47:56.567Z,62.64
2022-10-30T07:50:23.924Z,60.46
2022-10-30T07:52:50.629Z,64.35
2022-10-30T07:55:17.386Z,62.88
2022-10-30T07:57:43.983Z,60.35
2022-10-30T08:00:13.664Z,59.43
2022-10-30T08:02:41.086Z,59.81
2022-10-30T08:05:08.196Z,59.51
2022-10-30T08:07:37.858Z,60.02
2022-10-30T08:10:06.103Z,58.78
2022-10-30T08:12:34.340Z,58.51
2022-10-30T08:15:01.187Z,58.04
2022-10-30T08:17:28.239Z,57.60
2022-10-30T08:19:55.367Z,58.13
2022-10-30T08:22:22.001Z,57.22
2022-10-30T08:24:48.841Z,57.06
2022-10-30T08:27:15.461Z,56.57
2022-10-30T08:29:42.067Z,55.62
2022-10-30T08:32:08.703Z,53.79
2022-10-30T08:34:35.395Z,51.92
2022-10-30T08:37:02.072Z,52.41
2022-10-30T08:39:28.682Z,50.26
2022-10-30T08:41:57.354Z,47.82
2022-10-30T08:44:26.473Z,47.49
2022-10-30T08:46:53.254Z,45.96
2022-10-30T08:49:19.937Z,47.70
2022-10-30T08:51:46.587Z,46.92
2022-10-30T08:54:13.175Z,47.69
2022-10-30T08:56:39.847Z,47.79
2022-10-30T08:59:06.441Z,44.48
2022-10-30T09:01:33.130Z,43.43
2022-10-30T09:03:59.854Z,41.78
2022-10-30T09:06:26.451Z,39.41
2022-10-30T09:08:53.069Z,39.45
2022-10-30T09:11:19.672Z,39.91
2022-10-30T09:13:46.406Z,38.54
2022-10-30T09:16:13.111Z,36.06
2022-10-30T09:18:39.734Z,35.85
2022-10-30T09:21:06.363Z,33.88
2022-10-30T09:23:33.017Z,33.08
2022-10-30T09:25:59.692Z,33.80
2022-10-30T09:28:26.308Z,35.50
2022-10-30T09:30:56.374Z,34.33
2022-10-30T09:33:23.448Z,34.16
2022-10-30T09:35:50.070Z,33.27
2022-10-30T09:38:16.671Z,32.26
2022-10-30T09:40:46.171Z,31.99
2022-10-30T09:43:34.624Z,30.35
2022-10-30T09:46:27.713Z,31.58
2022-10-30T09:49:25.145Z,33.52
2022-10-30T09:52:06.870Z,31.81
2022-10-30T09:54:44.991Z,31.70
2022-10-30T09:57:26.978Z,32.21
2022-10-30T10:00:12.808Z,30.56
2022-10-30T10:03:20.899Z,31.13
2022-10-30T10:05:59.914Z,29.76
2022-10-30T10:08:35.070Z,32.48
2022-10-30T10:11:08.553Z,37.37
2022-10-30T10:13:52.051Z,34.48
2022-10-30T10:16:27.018Z,35.11
2022-10-30T10:19:26.129Z,34.90
2022-10-30T10:22:01.443Z,34.38
2022-10-30T10:24:42.441Z,35.09
2022-10-30T10:27:13.328Z,34.56
2022-10-30T10:29:48.084Z,32.58
2022-10-30T10:32:33.331Z,35.00
2022-10-30T10:35:35.761Z,36.00
2022-10-30T10:38:35.280Z,37.77
2022-10-30T10:41:14.543Z,37.51
2022-10-30T10:44:08.607Z,35.43
2022-10-30T10:47:06.017Z,34.39
2022-10-30T10:49:40.303Z,32.33
2022-10-30T10:52:16.748Z,32.36
2022-10-30T10:54:52.538Z,30.77
2022-10-30T10:57:40.409Z,29.84
2022-10-30T11:00:20.536Z,30.73
2022-10-30T11:03:14.585Z,31.47
2022-10-30T11:05:49.757Z,32.63
2022-10-30T11:08:19.455Z,31.41
2022-10-30T11:10:50.976Z,32.22
2022-10-30T11:13:17.575Z,34.11
2022-10-30T11:16:13.208Z,33.41
2022-10-30T11:18:41.479Z,33.72
2022-10-30T11:21:27.684Z,31.95
2022-10-30T11:23:54.444Z,30.88
2022-10-30T11:26:21.031Z,31.72
2022-10-30T11:28:55.266Z,30.72
2022-10-30T11:31:40.292Z,31.17
2022-10-30T11:34:36.935Z,32.94
2022-10-30T11:37:04.718Z,34.05
2022-10-30T11:39:34.215Z,33.56
2022-10-30T11:42:13.772Z,33.94
2022-10-30T11:44:48.187Z,34.54
2022-10-30T11:47:16.609Z,36.36
2022-10-30T11:49:56.309Z,36.35
2022-10-30T11:52:25.353Z,37.03
2022-10-30T11:55:01.558Z,38.13
2022-10-30T11:57:32.308Z,36.96
2022-10-30T12:00:04.607Z,37.51
2022-10-30T12:02:41.628Z,35.13
2022-10-30T12:05:29.878Z,36.50
2022-10-30T12:08:20.980Z,33.90
2022-10-30T12:10:57.632Z,35.99
2022-10-30T12:13:25.876Z,35.77
2022-10-30T12:16:06.207Z,36.28
2022-10-30T12:18:33.708Z,36.16
2022-10-30T12:21:01.945Z,36.33
2022-10-30T12:23:29.302Z,35.92
2022-10-30T12:25:59.915Z,36.53
2022-10-30T12:28:29.992Z,34.34
2022-10-30T12:31:13.095Z,34.66
2022-10-30T12:33:50.240Z,35.50
2022-10-30T12:36:20.907Z,34.01
2022-10-30T12:38:52.571Z,32.80
2022-10-30T12:41:27.454Z,33.33
2022-10-30T12:44:08.607Z,34.87
2022-10-30T12:46:50.208Z,34.01
2022-10-30T12:49:41.831Z,33.80
2022-10-30T12:52:31.909Z,34.47
2022-10-30T12:55:02.153Z,35.56
2022-10-30T12:57:33.725Z,34.64
2022-10-30T13:00:16.749Z,34.03
2022-10-30T13:02:51.088Z,33.89
2022-10-30T13:05:30.781Z,33.04
2022-10-30T13:08:22.469Z,32.75
2022-10-30T13:11:17.133Z,31.39
2022-10-30T13:13:48.576Z,32.50
2022-10-30T13:16:28.413Z,32.14
2022-10-30T13:19:00.500Z,32.06
2022-10-30T13:21:39.062Z,32.24
2022-10-30T13:24:12.761Z,32.59
2022-10-30T13:26:42.642Z,32.66
2022-10-30T13:29:33.960Z,33.50
2022-10-30T13:32:13.646Z,35.71
2022-10-30T13:34:50.135Z,35.52
2022-10-30T13:37:32.701Z,37.19
2022-10-30T13:40:08.472Z,37.45
2022-10-30T13:42:46.064Z,37.26
2022-10-30T13:45:34.452Z,33.27
2022-10-30T13:48:25.179Z,32.99
2022-10-30T13:51:30.429Z,33.20
2022-10-30T13:54:11.779Z,37.08
2022-10-30T13:56:41.278Z,36.63
2022-10-30T13:59:12.236Z,37.03
2022-10-30T14:01:49.944Z,37.74
2022-10-30T14:04:32.548Z,38.08
2022-10-30T14:07:13.231Z,39.20
2022-10-30T14:09:51.606Z,38.48
2022-10-30T14:12:50.110Z,41.13
2022-10-30T14:15:26.951Z,41.63
2022-10-30T14:18:11.661Z,43.86
2022-10-30T14:20:38.988Z,44.07
2022-10-30T14:23:08.883Z,45.25
2022-10-30T14:25:36.030Z,46.58
2022-10-30T14:28:02.967Z,47.87
2022-10-30T14:30:29.801Z,49.10
2022-10-30T14:32:56.459Z,48.85
2022-10-30T14:35:35.082Z,48.30
2022-10-30T14:38:10.423Z,47.26
2022-10-30T14:40:41.857Z,47.41
2022-10-30T14:43:14.739Z,47.84
2022-10-30T14:45:44.710Z,48.71
2022-10-30T14:48:17.076Z,49.00
2022-10-30T14:51:26.370Z,49.95
2022-10-30T14:54:18.679Z,50.50
2022-10-30T14:56:48.013Z,50.46
2022-10-30T14:59:14.545Z,52.06
2022-10-30T15:01:47.107Z,52.33
2022-10-30T15:04:34.875Z,52.60
2022-10-30T15:07:34.303Z,52.94
2022-10-30T15:10:06.914Z,53.57
2022-10-30T15:13:26.066Z,54.08
2022-10-30T15:16:05.799Z,54.65
2022-10-30T15:18:32.709Z,55.37
2022-10-30T15:21:07.241Z,55.83
2022-10-30T15:23:37.043Z,55.87
2022-10-30T15:26:17.364Z,55.57
2022-10-30T15:28:48.544Z,55.61
2022-10-30T15:31:18.158Z,56.44
2022-10-30T15:33:45.186Z,57.69
2022-10-30T15:36:34.649Z,58.21
2022-10-30T15:39:11.494Z,58.15
2022-10-30T15:41:48.682Z,58.64
2022-10-30T15:44:22.327Z,58.37
2022-10-30T15:46:52.578Z,59.08
2022-10-30T15:49:29.510Z,59.30
2022-10-30T15:51:57.187Z,59.64
2022-10-30T15:54:25.427Z,60.19
2022-10-30T15:57:31.429Z,60.33
2022-10-30T15:59:51.951Z,61.14
2022-10-30T16:02:23.948Z,61.07
2022-10-30T16:04:50.747Z,61.39
2022-10-30T16:07:20.670Z,61.53
2022-10-30T16:09:54.752Z,62.39
2022-10-30T16:12:25.802Z,61.46
2022-10-30T16:14:53.579Z,61.08
2022-10-30T16:17:20.527Z,60.87
2022-10-30T16:19:51.726Z,60.14
2022-10-30T16:22:25.446Z,59.91
2022-10-30T16:24:53.395Z,59.70
2022-10-30T16:27:23.002Z,60.14
2022-10-30T16:29:52.978Z,60.24
2022-10-30T16:32:22.293Z,61.24
2022-10-30T16:34:50.914Z,61.19
2022-10-30T16:37:44.223Z,60.90
2022-10-30T16:40:14.174Z,61.22
2022-10-30T16:42:41.156Z,61.26
2022-10-30T16:45:10.462Z,60.81
2022-10-30T16:47:41.131Z,60.97
2022-10-30T16:50:14.339Z,62.83
2022-10-30T16:52:42.337Z,63.81
2022-10-30T16:55:20.011Z,65.01
2022-10-30T16:57:53.395Z,64.84
2022-10-30T17:00:32.772Z,64.94
2022-10-30T17:03:08.267Z,65.04
2022-10-30T17:05:37.011Z,64.88
2022-10-30T17:08:25.644Z,64.60
2022-10-30T17:10:59.651Z,64.11
2022-10-30T17:13:52.081Z,64.25
2022-10-30T17:16:33.017Z,64.48
2022-10-30T17:19:20.778Z,64.81
2022-10-30T17:21:52.148Z,64.87
2022-10-30T17:24:22.143Z,65.56
2022-10-30T17:26:57.200Z,65.53
2022-10-30T17:29:42.260Z,66.05
2022-10-30T17:32:25.780Z,66.85
2022-10-30T17:35:08.965Z,67.17
2022-10-30T17:37:35.671Z,67.21
2022-10-30T17:40:02.321Z,67.79
2022-10-30T17:42:28.984Z,68.10
2022-10-30T17:44:55.640Z,69.03
2022-10-30T17:47:23.687Z,69.80
2022-10-30T17:49:50.288Z,70.46
2022-10-30T17:52:21.438Z,70.91
2022-10-30T17:54:48.285Z,70.51
2022-10-30T17:57:15.768Z,70.87
2022-10-30T17:59:43.174Z,70.68
2022-10-30T18:02:15.627Z,72.01
2022-10-30T18:04:43.389Z,71.74
2022-10-30T18:07:10.745Z,72.05
2022-10-30T18:09:38.672Z,72.41
2022-10-30T18:12:07.829Z,72.23
2022-10-30T18:14:34.435Z,73.09
2022-10-30T18:17:01.084Z,72.87
2022-10-30T18:19:27.801Z,73.48
2022-10-30T18:21:54.658Z,73.32
2022-10-30T18:24:21.349Z,73.32
2022-10-30T18:26:48.053Z,73.82
2022-10-30T18:29:14.755Z,74.33
2022-10-30T18:31:41.509Z,74.60
2022-10-30T18:34:16.967Z,74.41
2022-10-30T18:36:44.091Z,74.93
2022-10-30T18:39:12.928Z,75.03
2022-10-30T18:41:45.160Z,75.37
2022-10-30T18:44:20.697Z,75.79
2022-10-30T18:46:47.399Z,75.46
2022-10-30T18:49:14.011Z,75.52
2022-10-30T18:51:41.010Z,75.63
2022-10-30T18:54:17.135Z,77.41
2022-10-30T18:56:43.967Z,77.28
2022-10-30T18:59:10.801Z,78.32
2022-10-30T19:01:37.672Z,78.92
2022-10-30T19:04:09.403Z,79.00
2022-10-30T19:06:38.428Z,80.81
2022-10-30T19:09:05.234Z,80.40
2022-10-30T19:11:32.226Z,80.01
2022-10-30T19:13:59.471Z,80.38
2022-10-30T19:16:26.384Z,80.51
2022-10-30T19:18:53.578Z,82.22
2022-10-30T19:21:22.879Z,82.22
2022-10-30T19:23:49.771Z,82.19
2022-10-30T19:26:17.370Z,81.95
2022-10-30T19:28:45.382Z,81.60
2022-10-30T19:31:18.144Z,81.24
2022-10-30T19:33:45.437Z,81.93
2022-10-30T19:36:33.927Z,81.97
2022-10-30T19:39:07.490Z,81.32
2022-10-30T19:41:35.753Z,81.51
2022-10-30T19:44:02.411Z,81.22
2022-10-30T19:46:29.031Z,82.00
2022-10-30T19:48:57.580Z,82.44
2022-10-30T19:51:25.340Z,82.56
2022-10-30T19:53:53.841Z,81.83
2022-10-30T19:56:21.496Z,81.88
2022-10-30T19:58:49.879Z,82.83
2022-10-30T20:01:17.092Z,83.16
2022-10-30T20:03:44.186Z,82.75
2022-10-30T20:06:12.484Z,82.77
2022-10-30T20:08:39.631Z,82.59
2022-10-30T20:11:06.297Z,82.32
2022-10-30T20:13:33.485Z,82.49
2022-10-30T20:16:02.592Z,82.28
2022-10-30T20:18:32.263Z,81.92
2022-10-30T20:21:01.354Z,82.05
2022-10-30T20:23:28.778Z,83.10
2022-10-30T20:26:01.261Z,83.65
2022-10-30T20:28:32.606Z,84.35
2022-10-30T20:30:59.396Z,83.69
2022-10-30T20:33:26.742Z,83.24
2022-10-30T20:35:54.796Z,82.72
2022-10-30T20:38:23.862Z,82.42
2022-10-30T20:40:50.616Z,83.57
2022-10-30T20:43:19.757Z,83.55
2022-10-30T20:45:47.184Z,83.95
2022-10-30T20:48:14.162Z,82.87
2022-10-30T20:50:41.667Z,83.14
2022-10-30T20:53:12.728Z,84.15
2022-10-30T20:55:40.633Z,84.71
2022-10-30T20:58:07.595Z,84.20
2022-10-30T21:00:34.234Z,87.93
2022-10-30T21:03:05.221Z,86.04
2022-10-30T21:05:45.034Z,86.33
2022-10-30T21:08:14.058Z,87.72
2022-10-30T21:10:41.015Z,88.10
2022-10-30T21:13:09.538Z,88.16
2022-10-30T21:15:41.709Z,88.52
2022-10-30T21:18:09.674Z,88.61
2022-10-30T21:20:37.581Z,89.10
2022-10-30T21:23:05.534Z,88.98
2022-10-30T21:25:32.455Z,87.93
2022-10-30T21:28:00.274Z,87.85
2022-10-30T21:30:27.530Z,87.12
2022-10-30T21:32:54.200Z,87.50
2022-10-30T21:35:21.110Z,88.12
2022-10-30T21:37:47.932Z,87.60
2022-10-30T21:40:14.834Z,88.08
2022-10-30T21:42:41.441Z,87.26
2022-10-30T21:45:09.283Z,87.15
2022-10-30T21:47:35.882Z,87.58
2022-10-30T21:50:06.156Z,88.80
2022-10-30T21:52:34.666Z,89.19
2022-10-30T21:55:01.273Z,88.85
2022-10-30T21:57:29.131Z,88.94
2022-10-30T21:59:58.718Z,90.19
2022-10-30T22:02:28.293Z,91.35
2022-10-30T22:04:55.145Z,90.91
2022-10-30T22:07:21.808Z,91.37
2022-10-30T22:09:48.486Z,90.07
2022-10-30T22:12:15.137Z,93.96
2022-10-30T22:14:41.764Z,92.41
2022-10-30T22:17:08.710Z,91.65
2022-10-30T22:19:35.319Z,91.03
2022-10-30T22:22:01.918Z,90.91
2022-10-30T22:24:28.521Z,90.70
2022-10-30T22:26:55.249Z,92.09
2022-10-30T22:29:21.856Z,92.77
2022-10-30T22:31:49.573Z,92.65
2022-10-30T22:34:16.223Z,92.78
2022-10-30T22:36:42.832Z,91.86
2022-10-30T22:39:13.288Z,93.04
2022-10-30T22:41:40.870Z,93.31
2022-10-30T22:44:11.038Z,92.91
2022-10-30T22:46:37.985Z,93.12
2022-10-30T22:49:05.269Z,92.85
2022-10-30T22:51:33.902Z,93.75
2022-10-30T22:54:02.605Z,94.21
2022-10-30T22:56:31.792Z,93.42
2022-10-30T22:59:02.098Z,93.90
2022-10-30T23:01:34.049Z,94.92
2022-10-30T23:04:02.309Z,96.31
2022-10-30T23:06:30.870Z,94.87
2022-10-30T23:08:59.358Z,95.41
2022-10-30T23:11:26.566Z,94.64
2022-10-30T23:13:53.215Z,95.01
2022-10-30T23:16:22.556Z,95.20
2022-10-30T23:18:50.631Z,94.82
2022-10-30T23:21:20.967Z,94.26
2022-10-30T23:23:47.874Z,94.96
2022-10-30T23:26:23.110Z,94.06
2022-10-30T23:28:51.754Z,94.58
2022-10-30T23:31:20.066Z,93.79
2022-10-30T23:33:48.549Z,94.54
2022-10-30T23:36:16.528Z,93.80
2022-10-30T23:38:43.307Z,93.06
2022-10-30T23:41:10.610Z,92.65
2022-10-30T23:43:37.189Z,92.20
2022-10-30T23:46:03.788Z,92.20
2022-10-30T23:48:30.378Z,93.61
2022-10-30T23:50:57.047Z,92.94
2022-10-30T23:53:23.677Z,93.91
2022-10-30T23:55:54.441Z,93.59
2022-10-30T23:58:21.383Z,93.34
